^^
Station Historical Data
Daily Summary for April 7, 2017 Units:  Metric    English   Both
« Previous Day
Next Day »
Daily Weekly Monthly Yearly Custom
  High: Low: Average:
Temperature: 35.6 °C 17.1 °C 27.6 °C
Dew Point: 8.4 °C 3.9 °C 6.3 °C
Humidity: 54% 14% 29%
Wind Speed: 24.1km/h 0km/h 3.2km/h
Wind Gust: 30.6km/h - -
Wind- - SW
Pressure: 1009 hPa 1003.9 hPa -
Precipitation: 0 mm    
Historical Graphs
 
 
Tabular Data for April 7, 2017
Time Temperature Dew Point Pressure Wind Wind Speed Wind Gust Humidity Rainfall Rate (Hourly) solar Conditions
04:53 17.6 °C 7.3 °C 1008 hPa Calm     51% 0 mm 0.0 W/m2
05:03 17.8 °C 7.5 °C 1008 hPa Calm     51% 0 mm 0.0 W/m2
05:13 17.8 °C 7.5 °C 1008 hPa Calm     51% 0 mm 0.0 W/m2
05:19 17.6 °C 7.3 °C 1008 hPa Calm     51% 0 mm 0.0 W/m2
05:23 17.6 °C 7.3 °C 1008 hPa Calm     51% 0 mm 0.0 W/m2
05:45 17.6 °C 7.6 °C 1008 hPa Calm     52% 0 mm 0.0 W/m2
05:50 17.7 °C 7.7 °C 1008 hPa Calm     52% 0 mm 0.0 W/m2
06:00 17.7 °C 7.7 °C 1008 hPa Calm     52% 0 mm 0.0 W/m2
06:11 17.4 °C 7.7 °C 1008 hPa Calm     53% 0 mm 5.0 W/m2
06:16 17.3 °C 7.6 °C 1008 hPa Calm     53% 0 mm 7.0 W/m2
06:27 17.2 °C 7.3 °C 1008 hPa Calm     52% 0 mm 14.0 W/m2
06:32 17.1 °C 7.4 °C 1008 hPa Calm     53% 0 mm 16.0 W/m2
06:37 17.1 °C 7.7 °C 1008.4 hPa Calm     54% 0 mm 21.0 W/m2
06:45 17.2 °C 7.5 °C 1008.4 hPa Calm     53% 0 mm 54.0 W/m2
06:50 17.2 °C 7.5 °C 1008.4 hPa Calm     53% 0 mm 65.0 W/m2
06:55 17.4 °C 7.7 °C 1008.4 hPa Calm     53% 0 mm 118.0 W/m2
07:05 18.1 °C 7.8 °C 1008.4 hPa Calm     51% 0 mm 155.0 W/m2
07:21 20.2 °C 8.2 °C 1008.4 hPa Calm     46% 0 mm 218.0 W/m2
07:45 21.1 °C 8.4 °C 1008.7 hPa Calm     44% 0 mm 276.0 W/m2
08:02 21.8 °C 8.3 °C 1009 hPa Calm     42% 0 mm 334.0 W/m2
08:12 22.4 °C 8.1 °C 1008.7 hPa Calm     40% 0 mm 408.0 W/m2
08:42 23.4 °C 8.3 °C 1008.7 hPa Calm     38% 0 mm 455.0 W/m2
08:53 24.9 °C 8 °C 1008.7 hPa Calm     34% 0 mm 522.0 W/m2
09:09 26.3 °C 7.8 °C 1008.7 hPa Calm     31% 0 mm 563.0 W/m2
09:33 27.4 °C 7.8 °C 1008.4 hPa Calm     29% 0 mm 599.0 W/m2
09:44 29 °C 7.6 °C 1008.4 hPa Calm     26% 0 mm 643.0 W/m2
10:00 29.9 °C 7.1 °C 1008.4 hPa SSW 1.4 km/h 6.4 km/h 24% 0 mm 670.0 W/m2
10:10 30.1 °C 7.3 °C 1008 hPa SSW 3.2 km/h 4.8 km/h 24% 0 mm 684.0 W/m2
10:25 30.7 °C 7.8 °C 1007.7 hPa Calm     24% 0 mm 719.0 W/m2
10:40 31.1 °C 7.5 °C 1007.7 hPa Calm   8 km/h 23% 0 mm 737.0 W/m2
11:01 31.8 °C 8.1 °C 1007.3 hPa Calm   4.8 km/h 23% 0 mm 761.0 W/m2
11:10 32.1 °C 7.7 °C 1007.3 hPa Calm   8 km/h 22% 0 mm 766.0 W/m2
11:15 32.2 °C 7.1 °C 1007.3 hPa Calm     21% 0 mm 768.0 W/m2
11:16 32.3 °C 7.2 °C 1007.3 hPa Calm   3.2 km/h 21% 0 mm 770.0 W/m2
11:26 32.3 °C 6.5 °C 1007 hPa WSW 3.2 km/h 8 km/h 20% 0 mm 780.0 W/m2
11:42 32.9 °C 6.2 °C 1007 hPa Calm   6.4 km/h 19% 0 mm 798.0 W/m2
11:46 33.4 °C 5.8 °C 1006.7 hPa Calm   6.4 km/h 18% 0 mm 780.0 W/m2
12:01 33.6 °C 6 °C 1006.7 hPa Calm     18% 0 mm 788.0 W/m2
12:07 34.1 °C 5.6 °C 1006.3 hPa WSW 4.7 km/h 12.9 km/h 17% 0 mm 784.0 W/m2
12:28 34.3 °C 6.6 °C 1006 hPa WSW 4.7 km/h 8 km/h 18% 0 mm 775.0 W/m2
12:32 34 °C 5.5 °C 1006 hPa Calm   8 km/h 17% 0 mm 775.0 W/m2
12:48 34.6 °C 6 °C 1005.6 hPa Calm     17% 0 mm 780.0 W/m2
13:03 34.3 °C 4.9 °C 1005.6 hPa West 11.1 km/h 11.3 km/h 16% 0 mm 765.0 W/m2
13:26 34.7 °C 4.3 °C 1005.3 hPa Calm   3.2 km/h 15% 0 mm 756.0 W/m2
13:41 34.8 °C 4.3 °C 1005.3 hPa Calm     15% 0 mm 744.0 W/m2
13:55 34.7 °C 4.3 °C 1005 hPa WNW 3.2 km/h 11.3 km/h 15% 0 mm 427.0 W/m2
14:06 34.5 °C 4.1 °C 1005 hPa WNW 7.9 km/h 11.3 km/h 15% 0 mm 287.0 W/m2
14:17 34.8 °C 4.3 °C 1005 hPa Calm     15% 0 mm 707.0 W/m2
14:25 35 °C 4.5 °C 1004.6 hPa Calm   6.4 km/h 15% 0 mm 677.0 W/m2
14:36 35.1 °C 4.6 °C 1004.6 hPa WNW 7.9 km/h 9.7 km/h 15% 0 mm 638.0 W/m2
14:53 35.2 °C 4.7 °C 1004.6 hPa Calm   1.6 km/h 15% 0 mm 587.0 W/m2
15:01 35.4 °C 4.8 °C 1004.3 hPa Calm   6.4 km/h 15% 0 mm 571.0 W/m2
15:16 35.6 °C 4 °C 1004.3 hPa Calm   1.6 km/h 14% 0 mm 508.0 W/m2
15:32 35.4 °C 4.8 °C 1004.3 hPa Calm   1.6 km/h 15% 0 mm 227.0 W/m2
15:47 34.9 °C 4.4 °C 1004.3 hPa Calm     15% 0 mm 378.0 W/m2
16:03 35.2 °C 4.7 °C 1003.9 hPa Calm     15% 0 mm 290.0 W/m2
16:19 34.2 °C 3.9 °C 1003.9 hPa Calm     15% 0 mm 33.0 W/m2
16:34 33.1 °C 5.6 °C 1004.3 hPa SW 24.1 km/h 30.6 km/h 18% 0 mm 32.0 W/m2
16:49 31.2 °C 5.6 °C 1004.6 hPa SW 11.1 km/h 24.1 km/h 20% 0 mm 25.0 W/m2
17:04 30.4 °C 4.9 °C 1005 hPa SW 20.9 km/h 27.4 km/h 20% 0 mm 32.0 W/m2
17:26 30.2 °C 5.5 °C 1005 hPa SW 17.7 km/h 22.5 km/h 21% 0 mm 16.0 W/m2
17:41 30 °C 4.6 °C 1005.3 hPa SW 19.5 km/h 20.9 km/h 20% 0 mm 5.0 W/m2
17:56 29.9 °C 4.5 °C 1005.6 hPa SSW 14.3 km/h 17.7 km/h 20% 0 mm 0.0 W/m2
18:11 29.6 °C 5 °C 1005.6 hPa SSW 13 km/h 17.7 km/h 21% 0 mm 0.0 W/m2
18:26 29.1 °C 5.2 °C 1006 hPa SSW 13 km/h 19.3 km/h 22% 0 mm 0.0 W/m2
18:34 28.7 °C 4.9 °C 1006.3 hPa SSW 7.9 km/h 14.5 km/h 22% 0 mm 0.0 W/m2
18:56 28.4 °C 5.3 °C 1006.3 hPa SSW 11.1 km/h 14.5 km/h 23% 0 mm 0.0 W/m2
19:05 27.9 °C 4.9 °C 1006.7 hPa SSW 11.1 km/h 12.9 km/h 23% 0 mm 0.0 W/m2
19:26 27.7 °C 5.3 °C 1007 hPa SSW 7.9 km/h 11.3 km/h 24% 0 mm 0.0 W/m2
19:37 27.7 °C 5.3 °C 1007 hPa SSW 6.4 km/h 9.7 km/h 24% 0 mm 0.0 W/m2
19:50 27.4 °C 5.6 °C 1007 hPa SSW 6.4 km/h 8 km/h 25% 0 mm 0.0 W/m2
20:00 27.3 °C 5.5 °C 1007.3 hPa SSW 6.4 km/h 11.3 km/h 25% 0 mm 0.0 W/m2
20:12 27.1 °C 5.9 °C 1007.3 hPa SSW 6.4 km/h 6.4 km/h 26% 0 mm 0.0 W/m2
20:29 26.5 °C 6 °C 1007.7 hPa Calm     27% 0 mm 0.0 W/m2
20:41 25.9 °C 6 °C 1007.7 hPa SSW 6.4 km/h 9.7 km/h 28% 0 mm 0.0 W/m2
20:42 25.9 °C 6.5 °C 1007.7 hPa Calm     29% 0 mm 0.0 W/m2
20:49 25.9 °C 6.5 °C 1007.7 hPa Calm     29% 0 mm 0.0 W/m2
21:03 25.5 °C 6.7 °C 1007.7 hPa SSW 4.7 km/h 8 km/h 30% 0 mm 0.0 W/m2
21:12 25.2 °C 6.9 °C 1008 hPa Calm     31% 0 mm 0.0 W/m2
21:21 24.9 °C 6.6 °C 1008 hPa Calm     31% 0 mm 0.0 W/m2
Canyon Roadhouse, Fishriver Canyon, Namibia
Compliments of Weather Underground - 2 mb